createdAt,value
2022-11-21T00:01:17.334Z,80.58
2022-11-21T00:03:45.193Z,80.53
2022-11-21T00:06:12.825Z,80.89
2022-11-21T00:08:40.425Z,80.84
2022-11-21T00:11:08.100Z,80.54
2022-11-21T00:13:35.999Z,79.45
2022-11-21T00:16:07.799Z,80.11
2022-11-21T00:18:37.137Z,80.03
2022-11-21T00:21:06.781Z,80.74
2022-11-21T00:23:34.915Z,80.34
2022-11-21T00:26:06.069Z,80.62
2022-11-21T00:28:33.769Z,80.41
2022-11-21T00:31:01.359Z,80.93
2022-11-21T00:33:28.981Z,81.63
2022-11-21T00:35:58.168Z,81.71
2022-11-21T00:38:25.768Z,82.04
2022-11-21T00:40:53.424Z,82.28
2022-11-21T00:43:21.032Z,82.84
2022-11-21T00:45:48.625Z,82.28
2022-11-21T00:48:16.235Z,82.82
2022-11-21T00:50:44.062Z,82.53
2022-11-21T00:53:12.996Z,82.58
2022-11-21T00:55:40.603Z,82.97
2022-11-21T00:58:08.208Z,82.15
2022-11-21T01:00:35.884Z,81.90
2022-11-21T01:03:03.552Z,82.01
2022-11-21T01:05:32.977Z,82.20
2022-11-21T01:08:00.623Z,82.08
2022-11-21T01:10:29.655Z,82.10
2022-11-21T01:12:57.353Z,81.16
2022-11-21T01:15:25.038Z,80.96
2022-11-21T01:17:52.674Z,81.38
2022-11-21T01:20:20.359Z,81.45
2022-11-21T01:22:47.952Z,81.85
2022-11-21T01:25:15.748Z,81.94
2022-11-21T01:27:44.775Z,82.09
2022-11-21T01:30:14.572Z,82.05
2022-11-21T01:32:43.331Z,82.33
2022-11-21T01:35:10.997Z,82.89
2022-11-21T01:37:38.702Z,82.82
2022-11-21T01:40:07.025Z,82.74
2022-11-21T01:42:53.285Z,83.09
2022-11-21T01:45:53.966Z,82.92
2022-11-21T01:48:23.920Z,82.92
2022-11-21T01:50:51.584Z,82.86
2022-11-21T01:53:19.876Z,83.17
2022-11-21T01:55:47.647Z,82.40
2022-11-21T01:58:17.435Z,83.13
2022-11-21T02:00:48.316Z,83.14
2022-11-21T02:03:21.996Z,83.10
2022-11-21T02:05:49.659Z,83.31
2022-11-21T02:08:20.772Z,83.02
2022-11-21T02:10:56.198Z,82.52
2022-11-21T02:13:25.651Z,82.77
2022-11-21T02:15:53.306Z,82.62
2022-11-21T02:18:20.975Z,82.88
2022-11-21T02:20:54.309Z,83.18
2022-11-21T02:23:30.580Z,83.17
2022-11-21T02:26:00.515Z,83.70
2022-11-21T02:28:29.483Z,82.79
2022-11-21T02:30:57.159Z,83.47
2022-11-21T02:33:24.899Z,83.51
2022-11-21T02:36:00.162Z,82.89
2022-11-21T02:38:31.851Z,83.81
2022-11-21T02:41:10.900Z,82.40
2022-11-21T02:43:43.574Z,82.92
2022-11-21T02:46:11.324Z,82.57
2022-11-21T02:48:39.543Z,82.64
2022-11-21T02:51:07.277Z,82.25
2022-11-21T02:53:34.961Z,82.62
2022-11-21T02:56:05.173Z,82.63
2022-11-21T02:58:33.284Z,82.25
2022-11-21T03:01:00.938Z,82.23
2022-11-21T03:03:29.036Z,82.23
2022-11-21T03:05:57.725Z,82.71
2022-11-21T03:08:25.489Z,82.69
2022-11-21T03:10:53.156Z,82.37
2022-11-21T03:13:22.175Z,82.62
2022-11-21T03:15:49.970Z,82.44
2022-11-21T03:18:17.626Z,82.25
2022-11-21T03:20:45.247Z,82.25
2022-11-21T03:23:12.875Z,82.13
2022-11-21T03:25:40.488Z,83.04
2022-11-21T03:28:08.089Z,81.76
2022-11-21T03:30:37.443Z,82.25
2022-11-21T03:33:05.370Z,82.81
2022-11-21T03:35:33.153Z,82.22
2022-11-21T03:38:01.348Z,82.17
2022-11-21T03:40:29.008Z,81.97
2022-11-21T03:42:56.622Z,82.16
2022-11-21T03:45:24.700Z,82.57
2022-11-21T03:47:53.679Z,82.35
2022-11-21T03:50:21.583Z,82.71
2022-11-21T03:52:49.533Z,83.16
2022-11-21T03:55:17.318Z,82.03
2022-11-21T03:57:44.960Z,82.21
2022-11-21T04:00:14.507Z,82.09
2022-11-21T04:02:42.752Z,82.32
2022-11-21T04:05:11.875Z,82.54
2022-11-21T04:07:39.599Z,82.95
2022-11-21T04:10:08.149Z,82.57
2022-11-21T04:12:35.796Z,82.76
2022-11-21T04:15:04.103Z,83.47
2022-11-21T04:17:33.076Z,83.33
2022-11-21T04:20:00.706Z,83.30
2022-11-21T04:22:29.717Z,83.94
2022-11-21T04:24:57.403Z,84.04
2022-11-21T04:27:25.046Z,84.17
2022-11-21T04:29:52.624Z,84.18
2022-11-21T04:32:20.308Z,83.67
2022-11-21T04:34:47.945Z,83.78
2022-11-21T04:37:15.769Z,83.75
2022-11-21T04:39:44.841Z,83.13
2022-11-21T04:42:12.428Z,83.06
2022-11-21T04:44:40.023Z,82.92
2022-11-21T04:47:07.640Z,82.94
2022-11-21T04:49:35.309Z,83.00
2022-11-21T04:52:03.031Z,82.71
2022-11-21T04:54:31.102Z,83.09
2022-11-21T04:57:00.168Z,82.76
2022-11-21T04:59:27.979Z,83.21
2022-11-21T05:01:55.673Z,82.93
2022-11-21T05:04:23.537Z,82.78
2022-11-21T05:06:51.668Z,82.35
2022-11-21T05:09:19.356Z,82.73
2022-11-21T05:12:04.939Z,82.40
2022-11-21T05:14:34.022Z,82.83
2022-11-21T05:17:01.668Z,83.00
2022-11-21T05:19:29.396Z,82.09
2022-11-21T05:21:57.384Z,81.94
2022-11-21T05:24:25.374Z,82.58
2022-11-21T05:26:53.571Z,82.64
2022-11-21T05:29:26.676Z,82.05
2022-11-21T05:31:57.324Z,81.62
2022-11-21T05:34:26.226Z,81.62
2022-11-21T05:36:57.056Z,81.52
2022-11-21T05:39:24.684Z,81.36
2022-11-21T05:41:52.461Z,81.54
2022-11-21T05:44:19.421Z,82.34
2022-11-21T05:46:47.084Z,81.82
2022-11-21T05:49:16.380Z,81.45
2022-11-21T05:51:44.189Z,81.58
2022-11-21T05:54:14.548Z,81.87
2022-11-21T05:56:42.766Z,81.73
2022-11-21T05:59:12.208Z,81.27
2022-11-21T06:01:57.409Z,82.08
2022-11-21T06:04:26.886Z,81.72
2022-11-21T06:06:54.685Z,81.56
2022-11-21T06:09:23.605Z,81.87
2022-11-21T06:11:51.259Z,81.67
2022-11-21T06:14:19.059Z,82.32
2022-11-21T06:16:46.679Z,81.85
2022-11-21T06:19:14.277Z,82.20
2022-11-21T06:21:43.275Z,82.00
2022-11-21T06:24:12.104Z,82.31
2022-11-21T06:26:39.667Z,82.65
2022-11-21T06:29:07.399Z,82.09
2022-11-21T06:31:34.962Z,82.05
2022-11-21T06:34:02.538Z,82.35
2022-11-21T06:36:30.274Z,83.05
2022-11-21T06:38:59.224Z,83.09
2022-11-21T06:41:30.203Z,83.30
2022-11-21T06:44:00.839Z,82.85
2022-11-21T06:46:28.648Z,82.75
2022-11-21T06:48:56.282Z,82.49
2022-11-21T06:51:25.868Z,82.51
2022-11-21T06:53:55.717Z,82.01
2022-11-21T06:56:25.735Z,82.57
2022-11-21T06:58:53.870Z,82.93
2022-11-21T07:01:22.637Z,82.06
2022-11-21T07:03:50.443Z,82.20
2022-11-21T07:06:18.155Z,81.87
2022-11-21T07:08:45.751Z,82.35
2022-11-21T07:11:24.988Z,82.36
2022-11-21T07:13:53.246Z,82.62
2022-11-21T07:16:20.807Z,83.22
2022-11-21T07:18:48.650Z,81.95
2022-11-21T07:21:16.181Z,81.94
2022-11-21T07:23:43.718Z,82.43
2022-11-21T07:26:11.644Z,82.21
2022-11-21T07:28:39.436Z,81.88
2022-11-21T07:31:13.542Z,81.54
2022-11-21T07:33:43.050Z,81.34
2022-11-21T07:36:10.656Z,81.53
2022-11-21T07:38:38.203Z,80.40
2022-11-21T07:41:05.856Z,80.12
2022-11-21T07:43:33.517Z,79.62
2022-11-21T07:46:01.195Z,79.42
2022-11-21T07:48:31.500Z,79.25
2022-11-21T07:50:59.072Z,79.10
2022-11-21T07:53:26.745Z,79.75
2022-11-21T07:55:54.408Z,79.23
2022-11-21T07:58:22.038Z,78.91
2022-11-21T08:00:50.730Z,79.13
2022-11-21T08:03:18.442Z,79.40
2022-11-21T08:05:47.441Z,78.92
2022-11-21T08:08:15.474Z,78.68
2022-11-21T08:10:45.004Z,77.98
2022-11-21T08:13:13.011Z,78.33
2022-11-21T08:15:40.686Z,78.05
2022-11-21T08:18:09.837Z,78.04
2022-11-21T08:20:38.000Z,77.35
2022-11-21T08:23:07.267Z,77.07
2022-11-21T08:25:35.391Z,77.16
2022-11-21T08:28:03.792Z,76.44
2022-11-21T08:30:31.984Z,76.50
2022-11-21T08:33:00.097Z,76.34
2022-11-21T08:35:28.293Z,76.68
2022-11-21T08:37:59.514Z,75.53
2022-11-21T08:40:30.402Z,75.86
2022-11-21T08:42:58.702Z,75.32
2022-11-21T08:45:27.500Z,75.49
2022-11-21T08:47:55.655Z,75.75
2022-11-21T08:50:24.202Z,75.37
2022-11-21T08:52:52.220Z,75.18
2022-11-21T08:55:19.975Z,75.35
2022-11-21T08:57:48.977Z,75.10
2022-11-21T09:00:17.363Z,74.75
2022-11-21T09:02:45.018Z,74.75
2022-11-21T09:06:26.810Z,74.54
2022-11-21T09:08:54.600Z,74.66
2022-11-21T09:11:22.219Z,74.91
2022-11-21T09:14:05.131Z,74.63
2022-11-21T09:16:50.236Z,73.97
2022-11-21T09:19:18.126Z,73.83
2022-11-21T09:21:45.998Z,74.26
2022-11-21T09:24:13.851Z,74.31
2022-11-21T09:26:41.514Z,74.31
2022-11-21T09:29:11.138Z,75.00
2022-11-21T09:31:38.913Z,73.70
2022-11-21T09:34:06.704Z,73.52
2022-11-21T09:36:34.385Z,72.89
2022-11-21T09:39:02.309Z,72.76
2022-11-21T09:41:55.453Z,73.01
2022-11-21T09:44:40.928Z,73.06
2022-11-21T09:47:22.080Z,72.72
2022-11-21T09:49:55.275Z,72.91
2022-11-21T09:52:29.128Z,73.14
2022-11-21T09:55:02.555Z,71.79
2022-11-21T09:57:34.802Z,71.13
2022-11-21T10:00:13.831Z,71.95
2022-11-21T10:02:41.544Z,70.29
2022-11-21T10:05:14.579Z,69.90
2022-11-21T10:07:44.150Z,69.66
2022-11-21T10:10:31.900Z,69.77
2022-11-21T10:13:11.287Z,69.87
2022-11-21T10:15:57.385Z,70.25
2022-11-21T10:18:39.389Z,70.54
2022-11-21T10:21:20.455Z,68.37
2022-11-21T10:24:24.631Z,68.06
2022-11-21T10:26:55.581Z,67.79
2022-11-21T10:29:28.442Z,68.28
2022-11-21T10:32:02.292Z,68.42
2022-11-21T10:34:36.192Z,67.37
2022-11-21T10:37:12.725Z,66.36
2022-11-21T10:39:44.880Z,65.48
2022-11-21T10:42:24.778Z,64.60
2022-11-21T10:45:12.785Z,63.40
2022-11-21T10:47:41.776Z,63.71
2022-11-21T10:50:23.837Z,62.14
2022-11-21T10:52:58.018Z,61.29
2022-11-21T10:55:25.724Z,58.91
2022-11-21T10:57:54.984Z,57.81
2022-11-21T11:00:25.141Z,57.66
2022-11-21T11:03:06.791Z,57.42
2022-11-21T11:05:36.138Z,57.94
2022-11-21T11:08:07.372Z,55.35
2022-11-21T11:10:36.589Z,55.64
2022-11-21T11:13:47.237Z,54.09
2022-11-21T11:16:17.776Z,54.80
2022-11-21T11:18:55.310Z,54.51
2022-11-21T11:21:24.778Z,55.42
2022-11-21T11:23:54.885Z,52.60
2022-11-21T11:26:26.370Z,51.99
2022-11-21T11:28:55.888Z,52.96
2022-11-21T11:31:24.252Z,52.96
2022-11-21T11:33:55.799Z,55.84
2022-11-21T11:36:37.049Z,58.32
2022-11-21T11:39:14.931Z,59.58
2022-11-21T11:42:20.208Z,60.57
2022-11-21T11:45:14.037Z,61.56
2022-11-21T11:47:54.407Z,62.91
2022-11-21T11:50:27.972Z,63.53
2022-11-21T11:53:02.852Z,62.26
2022-11-21T11:55:36.546Z,60.67
2022-11-21T11:58:13.156Z,59.41
2022-11-21T12:00:46.646Z,59.08
2022-11-21T12:03:19.976Z,59.41
2022-11-21T12:06:03.574Z,59.91
2022-11-21T12:08:43.183Z,60.17
2022-11-21T12:11:35.369Z,60.73
2022-11-21T12:14:12.030Z,59.47
2022-11-21T12:16:42.524Z,60.03
2022-11-21T12:19:16.220Z,59.91
2022-11-21T12:21:46.095Z,58.12
2022-11-21T12:24:13.901Z,59.59
2022-11-21T12:26:52.349Z,59.17
2022-11-21T12:29:34.737Z,58.40
2022-11-21T12:32:18.869Z,56.78
2022-11-21T12:35:01.365Z,54.41
2022-11-21T12:37:40.399Z,52.94
2022-11-21T12:40:25.676Z,52.63
2022-11-21T12:43:04.541Z,51.53
2022-11-21T12:45:34.689Z,52.87
2022-11-21T12:48:37.285Z,54.53
2022-11-21T12:51:55.850Z,53.46
2022-11-21T12:54:42.001Z,51.42
2022-11-21T12:57:11.783Z,50.20
2022-11-21T12:59:53.934Z,51.26
2022-11-21T13:02:31.230Z,51.78
2022-11-21T13:05:01.420Z,52.68
2022-11-21T13:07:31.685Z,53.16
2022-11-21T13:10:04.933Z,54.67
2022-11-21T13:12:42.003Z,54.37
2022-11-21T13:15:25.551Z,55.48
2022-11-21T13:17:57.895Z,57.89
2022-11-21T13:20:32.042Z,59.17
2022-11-21T13:23:01.913Z,59.58
2022-11-21T13:25:55.334Z,59.54
2022-11-21T13:28:34.462Z,59.47
2022-11-21T13:31:05.590Z,59.35
2022-11-21T13:33:48.393Z,58.62
2022-11-21T13:36:38.937Z,58.79
2022-11-21T13:39:28.642Z,59.31
2022-11-21T13:42:32.314Z,60.66
2022-11-21T13:45:20.602Z,60.96
2022-11-21T13:48:04.570Z,62.54
2022-11-21T13:51:02.081Z,63.43
2022-11-21T13:53:58.222Z,64.11
2022-11-21T13:56:32.712Z,64.51
2022-11-21T13:59:17.515Z,64.49
2022-11-21T14:02:01.024Z,64.24
2022-11-21T14:04:50.230Z,64.95
2022-11-21T14:07:24.873Z,65.08
2022-11-21T14:09:53.889Z,65.88
2022-11-21T14:12:31.556Z,66.24
2022-11-21T14:15:21.436Z,66.99
2022-11-21T14:17:50.483Z,67.25
2022-11-21T14:20:22.224Z,68.02
2022-11-21T14:22:59.937Z,68.16
2022-11-21T14:25:37.605Z,67.82
2022-11-21T14:28:09.465Z,68.36
2022-11-21T14:30:40.707Z,68.96
2022-11-21T14:33:25.275Z,67.96
2022-11-21T14:35:56.074Z,67.31
2022-11-21T14:38:24.423Z,67.04
2022-11-21T14:40:52.592Z,67.18
2022-11-21T14:43:31.277Z,66.34
2022-11-21T14:46:00.947Z,68.31
2022-11-21T14:48:29.310Z,66.82
2022-11-21T14:50:59.325Z,66.92
2022-11-21T14:53:29.982Z,66.53
2022-11-21T14:56:01.501Z,66.88
2022-11-21T14:58:29.621Z,67.13
2022-11-21T15:01:06.784Z,66.50
2022-11-21T15:03:35.112Z,67.71
2022-11-21T15:06:07.901Z,70.13
2022-11-21T15:09:14.845Z,68.75
2022-11-21T15:11:30.256Z,68.24
2022-11-21T15:14:17.727Z,68.48
2022-11-21T15:16:50.877Z,69.64
2022-11-21T15:19:21.914Z,70.42
2022-11-21T15:21:51.348Z,71.36
2022-11-21T15:24:30.105Z,71.34
2022-11-21T15:26:57.867Z,72.16
2022-11-21T15:29:25.565Z,73.23
2022-11-21T15:32:16.302Z,73.23
2022-11-21T15:34:44.903Z,73.90
2022-11-21T15:37:16.500Z,74.42
2022-11-21T15:39:45.290Z,75.13
2022-11-21T15:42:38.475Z,75.51
2022-11-21T15:45:23.837Z,75.98
2022-11-21T15:47:52.956Z,76.15
2022-11-21T15:50:24.095Z,76.10
2022-11-21T15:52:53.234Z,76.83
2022-11-21T15:55:23.570Z,77.52
2022-11-21T15:57:51.279Z,77.68
2022-11-21T16:00:19.271Z,76.34
2022-11-21T16:02:47.506Z,78.26
2022-11-21T16:05:16.898Z,76.66
2022-11-21T16:07:44.746Z,76.61
2022-11-21T16:10:19.717Z,76.81
2022-11-21T16:12:50.426Z,77.04
2022-11-21T16:15:18.105Z,76.74
2022-11-21T16:17:47.621Z,76.21
2022-11-21T16:20:17.031Z,76.50
2022-11-21T16:22:47.822Z,77.55
2022-11-21T16:25:16.403Z,76.60
2022-11-21T16:27:44.267Z,76.41
2022-11-21T16:30:12.277Z,76.82
2022-11-21T16:32:39.980Z,77.09
2022-11-21T16:35:08.108Z,77.73
2022-11-21T16:37:37.081Z,78.42
2022-11-21T16:40:05.506Z,80.05
2022-11-21T16:42:33.132Z,78.82
2022-11-21T16:45:00.755Z,80.58
2022-11-21T16:47:28.365Z,81.14
2022-11-21T16:49:56.053Z,79.71
2022-11-21T16:52:23.759Z,79.18
2022-11-21T16:54:52.778Z,78.16
2022-11-21T16:57:20.644Z,79.58
2022-11-21T16:59:48.239Z,78.28
2022-11-21T17:02:16.067Z,80.13
2022-11-21T17:04:43.986Z,78.99
2022-11-21T17:07:11.819Z,79.14
2022-11-21T17:09:39.447Z,77.86
2022-11-21T17:12:08.979Z,77.94
2022-11-21T17:14:36.548Z,77.78
2022-11-21T17:17:04.172Z,78.82
2022-11-21T17:19:31.836Z,77.69
2022-11-21T17:22:00.104Z,78.52
2022-11-21T17:24:28.314Z,78.50
2022-11-21T17:26:57.211Z,79.23
2022-11-21T17:29:26.299Z,79.84
2022-11-21T17:31:54.322Z,78.68
2022-11-21T17:34:22.596Z,80.03
2022-11-21T17:36:50.561Z,79.81
2022-11-21T17:39:18.808Z,79.31
2022-11-21T17:41:46.560Z,78.95
2022-11-21T17:44:16.087Z,79.25
2022-11-21T17:46:45.167Z,78.52
2022-11-21T17:49:13.621Z,78.97
2022-11-21T17:51:42.036Z,78.61
2022-11-21T17:54:10.993Z,77.75
2022-11-21T17:56:45.447Z,78.15
2022-11-21T17:59:15.064Z,78.85
2022-11-21T18:01:42.853Z,79.36
2022-11-21T18:04:27.271Z,77.40
2022-11-21T18:06:54.993Z,79.10
2022-11-21T18:09:22.627Z,80.70
2022-11-21T18:11:50.493Z,81.22
2022-11-21T18:14:18.831Z,80.65
2022-11-21T18:16:52.736Z,80.99
2022-11-21T18:19:22.870Z,79.83
2022-11-21T18:21:51.917Z,78.00
2022-11-21T18:24:19.575Z,78.72
2022-11-21T18:26:47.338Z,78.16
2022-11-21T18:32:07.114Z,78.52
2022-11-21T18:34:36.151Z,78.61
2022-11-21T18:37:03.987Z,79.09
2022-11-21T18:39:31.830Z,77.39
2022-11-21T18:41:59.624Z,77.78
2022-11-21T18:44:27.228Z,77.08
2022-11-21T18:46:54.883Z,77.37
2022-11-21T18:49:22.500Z,77.72
2022-11-21T18:51:51.477Z,77.65
2022-11-21T18:54:19.097Z,76.95
2022-11-21T18:56:47.311Z,76.71
2022-11-21T18:59:15.179Z,76.05
2022-11-21T19:01:43.381Z,76.25
2022-11-21T19:04:11.256Z,76.20
2022-11-21T19:06:38.955Z,75.51
2022-11-21T19:09:08.378Z,75.58
2022-11-21T19:11:36.532Z,75.07
2022-11-21T19:14:04.862Z,74.87
2022-11-21T19:16:34.326Z,74.98
2022-11-21T19:21:50.371Z,74.64
2022-11-21T19:24:19.714Z,74.97
2022-11-21T19:26:50.137Z,74.59
2022-11-21T19:29:18.530Z,74.91
2022-11-21T19:31:46.416Z,74.21
2022-11-21T19:34:14.807Z,74.50
2022-11-21T19:36:43.161Z,73.94
2022-11-21T19:39:11.378Z,74.19
2022-11-21T19:41:41.573Z,74.17
2022-11-21T19:44:09.328Z,74.32
2022-11-21T19:46:39.155Z,74.40
2022-11-21T19:49:08.476Z,75.00
2022-11-21T19:51:38.456Z,74.74
2022-11-21T19:54:07.745Z,74.30
2022-11-21T19:56:36.007Z,75.26
2022-11-21T19:59:06.151Z,75.49
2022-11-21T20:01:35.770Z,75.81
2022-11-21T20:04:05.778Z,77.02
2022-11-21T20:06:35.539Z,78.08
2022-11-21T20:09:06.136Z,77.29
2022-11-21T20:11:34.755Z,77.49
2022-11-21T20:14:03.044Z,77.40
2022-11-21T20:16:34.970Z,78.45
2022-11-21T20:19:06.550Z,78.59
2022-11-21T20:21:34.948Z,79.70
2022-11-21T20:24:03.621Z,79.59
2022-11-21T20:26:32.357Z,79.93
2022-11-21T20:29:00.484Z,79.36
2022-11-21T20:31:30.455Z,79.58
2022-11-21T20:34:01.834Z,79.78
2022-11-21T20:36:31.966Z,79.39
2022-11-21T20:39:01.075Z,79.20
2022-11-21T20:41:30.789Z,79.69
2022-11-21T20:44:53.207Z,79.89
2022-11-21T20:46:48.531Z,80.43
2022-11-21T20:49:17.920Z,81.06
2022-11-21T20:54:33.438Z,81.65
2022-11-21T20:57:01.082Z,82.14
2022-11-21T20:59:29.026Z,83.08
2022-11-21T21:01:57.055Z,83.85
2022-11-21T21:04:26.096Z,84.18
2022-11-21T21:06:53.794Z,83.78
2022-11-21T21:09:21.445Z,85.08
2022-11-21T21:11:53.371Z,85.82
2022-11-21T21:14:21.852Z,85.24
2022-11-21T21:16:49.995Z,85.14
2022-11-21T21:19:18.373Z,84.70
2022-11-21T21:21:47.447Z,85.01
2022-11-21T21:24:15.940Z,85.42
2022-11-21T21:26:45.684Z,85.63
2022-11-21T21:29:14.777Z,85.40
2022-11-21T21:31:49.654Z,85.48
2022-11-21T21:34:18.807Z,85.99
2022-11-21T21:36:48.063Z,86.12
2022-11-21T21:39:15.714Z,85.75
2022-11-21T21:41:46.053Z,85.83
2022-11-21T21:44:14.298Z,85.68
2022-11-21T21:46:42.131Z,86.76
2022-11-21T21:49:09.832Z,86.88
2022-11-21T21:51:38.331Z,86.25
2022-11-21T21:54:07.479Z,86.73
2022-11-21T21:56:36.280Z,87.08
2022-11-21T21:59:03.981Z,87.15
2022-11-21T22:01:33.324Z,87.05
2022-11-21T22:04:03.298Z,87.83
2022-11-21T22:06:33.803Z,87.74
2022-11-21T22:09:02.036Z,88.25
2022-11-21T22:11:32.812Z,88.19
2022-11-21T22:14:02.333Z,88.87
2022-11-21T22:16:31.379Z,88.72
2022-11-21T22:18:59.470Z,88.24
2022-11-21T22:21:29.157Z,88.16
2022-11-21T22:26:47.211Z,88.54
2022-11-21T22:29:14.897Z,88.75
2022-11-21T22:31:42.597Z,89.02
2022-11-21T22:34:13.388Z,88.55
2022-11-21T22:36:41.388Z,89.49
2022-11-21T22:39:09.133Z,89.24
2022-11-21T22:41:37.126Z,88.94
2022-11-21T22:44:06.597Z,88.84
2022-11-21T22:46:34.301Z,90.17
2022-11-21T22:49:02.040Z,89.24
2022-11-21T22:51:30.338Z,89.11
2022-11-21T22:53:58.059Z,89.03
2022-11-21T22:56:26.955Z,88.83
2022-11-21T22:58:54.610Z,88.65
2022-11-21T23:01:24.899Z,87.88
2022-11-21T23:03:53.197Z,86.66
2022-11-21T23:06:23.480Z,87.08
2022-11-21T23:08:51.659Z,87.91
2022-11-21T23:11:22.610Z,88.38
2022-11-21T23:13:51.233Z,88.35
2022-11-21T23:16:19.400Z,89.30
2022-11-21T23:18:48.979Z,89.95
2022-11-21T23:21:16.785Z,90.33
2022-11-21T23:23:44.844Z,90.56
2022-11-21T23:26:12.608Z,91.29
2022-11-21T23:28:40.304Z,91.48
2022-11-21T23:31:07.941Z,91.63
2022-11-21T23:33:35.577Z,92.35
2022-11-21T23:36:04.716Z,92.12
2022-11-21T23:38:32.376Z,92.40
2022-11-21T23:41:00.035Z,92.95
2022-11-21T23:43:28.842Z,92.73
2022-11-21T23:45:56.497Z,93.57
2022-11-21T23:48:26.161Z,93.61
2022-11-21T23:50:53.867Z,93.49
2022-11-21T23:53:23.409Z,94.11
2022-11-21T23:55:51.198Z,93.86
2022-11-21T23:58:18.829Z,94.03
